Flight Track Log - Related Links

Times and Time Zones

All times are in EDT time to prevent confusion due to time zone crossing. See the AWI3833 flight status page for this flight to view local times or setup timezone preferences in your user account.

Time Position Orientation Groundspeed Altitude Reporting Facility
EDT Latitude Longitude Course Direction KTS MPH feet Rate Location/Type
Tue 06:13:49 PM 43.0964 -76.2194 260° West 196 226 4,200  Level Boston Center
Tue 06:15:00 PM 42.8951 -76.3479 223° Southwest  Level FlightAware Approximate
Tue 06:15:44 PM 43.0178 -76.3153 222° Southwest 212 244 9,000  Level New York Center
Tue 06:16:00 PM 42.8266 -76.4334 223° Southwest  Level FlightAware Approximate
Tue 06:16:42 PM 42.9528 -76.3692 211° Southwest 246 283 10,000  Level New York Center
Tue 06:17:00 PM 42.7508 -76.5050 210° Southwest  Level FlightAware Approximate
Tue 06:17:42 PM 42.8753 -76.4275 209° Southwest 292 336 10,900  Level New York Center
Tue 06:18:43 PM 42.7994 -76.4886 211° Southwest 314 361 12,000 541 Climbing New York Center
Tue 06:19:44 PM 42.7239 -76.5469 210° Southwest 324 373 12,000  Level New York Center
Tue 06:20:42 PM 42.6481 -76.6050 209° Southwest 324 373 12,000 1,017 Level New York Center
Tue 06:21:42 PM 42.5725 -76.6631 210° Southwest 324 373 14,000 992 Climbing New York Center
Tue 06:22:43 PM 42.4831 -76.6633 180° South 317 365 14,000  Level New York Center
Tue 06:23:43 PM 42.3989 -76.5942 149° Southeast 309 356 14,000  Level New York Center
Tue 06:24:44 PM 42.3108 -76.5244 150° Southeast 322 371 14,000  Level New York Center
Tue 06:25:44 PM 42.2344 -76.4647 150° Southeast 336 387 14,000  Level New York Center
Tue 06:26:44 PM 42.1522 -76.3989 149° Southeast 341 392 14,000  Level New York Center
Tue 06:27:42 PM 42.0703 -76.3303 148° Southeast 341 392 14,000  Level New York Center
Tue 06:28:42 PM 41.9858 -76.2647 150° Southeast 346 398 14,000  Level New York Center
Tue 06:29:43 PM 41.9344 -76.1600 123° Southeast 327 376 14,000 -149 Level New York Center
Tue 06:30:43 PM 41.8919 -76.0367 115° Southeast 332 382 13,700 -645 Descending New York Center
Tue 06:31:44 PM 41.8131 -75.9833 153° Southeast 310 357 12,700 -843 Descending New York Center
Tue 06:32:44 PM 41.7297 -75.9378 158° South 318 366 12,000 -356 Descending New York Center
Tue 06:33:42 PM 41.6503 -75.8956 158° South 333 383 12,000  Level New York Center
Tue 06:34:43 PM 41.5628 -75.8472 158° South 339 390 12,000  Level New York Center
Tue 06:35:43 PM 41.4775 -75.7994 157° South 339 390 12,000  Level New York Center
Tue 06:36:44 PM 41.3919 -75.7514 157° South 339 390 12,000 -303 Level New York Center
Tue 06:37:42 PM 41.3064 -75.7092 160° South 339 390 11,400 -900 Descending New York Center
Tue 06:38:44 PM 41.2111 -75.6911 172° South 327 376 10,200 -700 Descending New York Center
Tue 06:39:42 PM 41.1258 -75.6878 178° South 315 362 10,000 -101 Descending New York Center
Tue 06:40:43 PM 41.0364 -75.6894 181° South 320 368 10,000  Level New York Center
Tue 06:41:44 PM 40.9489 -75.6886 180° South 325 374 10,000  Level New York Center
Tue 06:42:45 PM 40.8614 -75.6878 180° South 325 374 10,000  Level New York Center
Tue 06:43:43 PM 40.7894 -75.6608 164° South 317 365 10,000  Level New York Center
Tue 06:44:44 PM 40.7125 -75.6114 154° Southeast 308 354 10,000  Level New York Center
Tue 06:45:44 PM 40.6272 -75.5536 153° Southeast 313 360 10,000  Level New York Center
Tue 06:46:42 PM 40.5500 -75.5017 153° Southeast 313 360 10,000  Level New York Center
Tue 06:47:43 PM 40.4872 -75.4592 153° Southeast 318 366 10,000  Level New York Center
Tue 06:48:43 PM 40.4058 -75.4072 154° Southeast 302 348 10,000 -744 Level New York Center
Tue 06:49:44 PM 40.3325 -75.3669 157° South 276 318 8,500 -1,339 Descending New York Center
Tue 06:50:44 PM 40.2717 -75.3247 152° Southeast 254 292 7,300 -1,240 Descending New York Center
Tue 06:51:45 PM 40.2364 -75.2625 127° Southeast 241 277 6,000 -1,373 Descending New York Center
Tue 06:52:42 PM 40.1753 -75.2289 157° South 235 270 4,600 -1,026 Descending New York Center
Tue 06:53:42 PM 40.1125 -75.2356 185° South 210 242 4,000 -298 Descending New York Center
Tue 06:54:43 PM 40.0503 -75.2261 173° South 233 268 4,000  Level New York Center
Tue 06:55:19 PM 40.0167 -75.2167 168° South 213 245 4,000  Level Philadelphia TRACON
Tue 06:56:13 PM 39.9667 -75.1833 153° Southeast 210 242 4,000  Level Philadelphia TRACON
Tue 06:57:13 PM 39.9167 -75.1667 166° South 210 242 4,000 -400 Level Philadelphia TRACON
Tue 06:58:13 PM 39.8667 -75.1500 166° South 182 209 3,200 -1,158 Descending Philadelphia TRACON
Tue 06:59:07 PM 39.8167 -75.1500 180° South 171 197 1,800 -842 Descending Philadelphia TRACON
Tue 07:00:07 PM 39.8167 -75.2000 270° West 161 185 1,600 -650 Descending Philadelphia TRACON
Tue 07:01:07 PM 39.8500 -75.2167 339° North 130 150 500 -1,100 Descending Philadelphia TRACON
Tue 07:03:00 PM 39.8667 -75.2333 247° West  Level FlightAware Approximate

Login

Don't have an account? Register now (free) for customized features, flight alerts, and more!